sensor_id;sensor_type;location;lat;lon;timestamp;temperature;humidity
67354;SHT30;54238;52.278;21.056;2023-12-20T00:01:38;7.29;84.79
67354;SHT30;54238;52.278;21.056;2023-12-20T00:04:05;7.28;84.78
67354;SHT30;54238;52.278;21.056;2023-12-20T00:06:35;7.26;84.76
67354;SHT30;54238;52.278;21.056;2023-12-20T00:09:10;7.26;84.70
67354;SHT30;54238;52.278;21.056;2023-12-20T00:11:42;7.25;84.74
67354;SHT30;54238;52.278;21.056;2023-12-20T00:14:13;7.26;84.73
67354;SHT30;54238;52.278;21.056;2023-12-20T00:16:42;7.25;84.71
67354;SHT30;54238;52.278;21.056;2023-12-20T00:19:14;7.26;84.71
67354;SHT30;54238;52.278;21.056;2023-12-20T00:21:41;7.26;84.72
67354;SHT30;54238;52.278;21.056;2023-12-20T00:24:13;7.28;84.64
67354;SHT30;54238;52.278;21.056;2023-12-20T00:26:47;7.28;84.66
67354;SHT30;54238;52.278;21.056;2023-12-20T00:29:19;7.28;84.65
67354;SHT30;54238;52.278;21.056;2023-12-20T00:31:46;7.27;84.62
67354;SHT30;54238;52.278;21.056;2023-12-20T00:34:13;7.29;84.60
67354;SHT30;54238;52.278;21.056;2023-12-20T00:36:43;7.30;84.59
67354;SHT30;54238;52.278;21.056;2023-12-20T00:39:15;7.29;84.58
67354;SHT30;54238;52.278;21.056;2023-12-20T00:41:49;7.28;84.59
67354;SHT30;54238;52.278;21.056;2023-12-20T00:44:16;7.30;84.54
67354;SHT30;54238;52.278;21.056;2023-12-20T00:46:45;7.31;84.54
67354;SHT30;54238;52.278;21.056;2023-12-20T00:49:11;7.32;84.53
67354;SHT30;54238;52.278;21.056;2023-12-20T00:51:41;7.32;84.52
67354;SHT30;54238;52.278;21.056;2023-12-20T00:54:11;7.32;84.54
67354;SHT30;54238;52.278;21.056;2023-12-20T00:56:41;7.33;84.57
67354;SHT30;54238;52.278;21.056;2023-12-20T00:59:13;7.33;84.56
67354;SHT30;54238;52.278;21.056;2023-12-20T01:01:45;7.34;84.59
67354;SHT30;54238;52.278;21.056;2023-12-20T01:04:17;7.32;84.62
67354;SHT30;54238;52.278;21.056;2023-12-20T01:06:47;7.31;84.63
67354;SHT30;54238;52.278;21.056;2023-12-20T01:09:18;7.32;84.62
67354;SHT30;54238;52.278;21.056;2023-12-20T01:11:53;7.32;84.62
67354;SHT30;54238;52.278;21.056;2023-12-20T01:14:20;7.32;84.66
67354;SHT30;54238;52.278;21.056;2023-12-20T01:16:49;7.33;84.66
67354;SHT30;54238;52.278;21.056;2023-12-20T01:19:19;7.33;84.70
67354;SHT30;54238;52.278;21.056;2023-12-20T01:21:50;7.34;84.65
67354;SHT30;54238;52.278;21.056;2023-12-20T01:24:19;7.34;84.74
67354;SHT30;54238;52.278;21.056;2023-12-20T01:26:49;7.35;84.71
67354;SHT30;54238;52.278;21.056;2023-12-20T01:29:20;7.35;84.73
67354;SHT30;54238;52.278;21.056;2023-12-20T01:31:48;7.37;84.71
67354;SHT30;54238;52.278;21.056;2023-12-20T01:34:17;7.38;84.71
67354;SHT30;54238;52.278;21.056;2023-12-20T01:36:49;7.37;84.76
67354;SHT30;54238;52.278;21.056;2023-12-20T01:39:17;7.39;84.70
67354;SHT30;54238;52.278;21.056;2023-12-20T01:41:48;7.38;84.65
67354;SHT30;54238;52.278;21.056;2023-12-20T01:44:15;7.37;84.67
67354;SHT30;54238;52.278;21.056;2023-12-20T01:46:45;7.39;84.68
67354;SHT30;54238;52.278;21.056;2023-12-20T01:49:15;7.38;84.62
67354;SHT30;54238;52.278;21.056;2023-12-20T01:51:43;7.37;84.52
67354;SHT30;54238;52.278;21.056;2023-12-20T01:54:13;7.40;84.50
67354;SHT30;54238;52.278;21.056;2023-12-20T01:56:40;7.39;84.50
67354;SHT30;54238;52.278;21.056;2023-12-20T01:59:12;7.39;84.48
67354;SHT30;54238;52.278;21.056;2023-12-20T02:01:44;7.39;84.44
67354;SHT30;54238;52.278;21.056;2023-12-20T02:04:11;7.38;84.44
67354;SHT30;54238;52.278;21.056;2023-12-20T02:06:41;7.40;84.44
67354;SHT30;54238;52.278;21.056;2023-12-20T02:09:13;7.41;84.50
67354;SHT30;54238;52.278;21.056;2023-12-20T02:11:42;7.40;84.45
67354;SHT30;54238;52.278;21.056;2023-12-20T02:14:09;7.41;84.44
67354;SHT30;54238;52.278;21.056;2023-12-20T02:16:37;7.39;84.42
67354;SHT30;54238;52.278;21.056;2023-12-20T02:19:09;7.40;84.40
67354;SHT30;54238;52.278;21.056;2023-12-20T02:21:44;7.41;84.38
67354;SHT30;54238;52.278;21.056;2023-12-20T02:24:15;7.40;84.33
67354;SHT30;54238;52.278;21.056;2023-12-20T02:26:44;7.40;84.28
67354;SHT30;54238;52.278;21.056;2023-12-20T02:29:13;7.41;84.20
67354;SHT30;54238;52.278;21.056;2023-12-20T02:31:43;7.40;84.16
67354;SHT30;54238;52.278;21.056;2023-12-20T02:34:10;7.40;84.04
67354;SHT30;54238;52.278;21.056;2023-12-20T02:36:39;7.39;83.99
67354;SHT30;54238;52.278;21.056;2023-12-20T02:39:06;7.39;84.00
67354;SHT30;54238;52.278;21.056;2023-12-20T02:41:35;7.39;83.99
67354;SHT30;54238;52.278;21.056;2023-12-20T02:44:04;7.39;84.00
67354;SHT30;54238;52.278;21.056;2023-12-20T02:46:34;7.39;83.99
67354;SHT30;54238;52.278;21.056;2023-12-20T02:49:07;7.41;84.01
67354;SHT30;54238;52.278;21.056;2023-12-20T02:51:36;7.41;84.04
67354;SHT30;54238;52.278;21.056;2023-12-20T02:54:10;7.41;83.95
67354;SHT30;54238;52.278;21.056;2023-12-20T02:56:40;7.41;83.94
67354;SHT30;54238;52.278;21.056;2023-12-20T02:59:09;7.40;83.90
67354;SHT30;54238;52.278;21.056;2023-12-20T03:01:41;7.40;83.83
67354;SHT30;54238;52.278;21.056;2023-12-20T03:04:13;7.38;83.82
67354;SHT30;54238;52.278;21.056;2023-12-20T03:06:45;7.38;83.80
67354;SHT30;54238;52.278;21.056;2023-12-20T03:09:16;7.36;83.89
67354;SHT30;54238;52.278;21.056;2023-12-20T03:11:45;7.36;83.95
67354;SHT30;54238;52.278;21.056;2023-12-20T03:14:15;7.36;83.99
67354;SHT30;54238;52.278;21.056;2023-12-20T03:16:48;7.35;83.99
67354;SHT30;54238;52.278;21.056;2023-12-20T03:19:17;7.36;84.01
67354;SHT30;54238;52.278;21.056;2023-12-20T03:21:49;7.37;84.00
67354;SHT30;54238;52.278;21.056;2023-12-20T03:24:20;7.39;83.97
67354;SHT30;54238;52.278;21.056;2023-12-20T03:26:46;7.40;83.98
67354;SHT30;54238;52.278;21.056;2023-12-20T03:29:13;7.39;83.97
67354;SHT30;54238;52.278;21.056;2023-12-20T03:31:40;7.40;83.94
67354;SHT30;54238;52.278;21.056;2023-12-20T03:34:12;7.41;83.92
67354;SHT30;54238;52.278;21.056;2023-12-20T03:36:39;7.40;83.92
67354;SHT30;54238;52.278;21.056;2023-12-20T03:39:07;7.40;83.95
67354;SHT30;54238;52.278;21.056;2023-12-20T03:41:36;7.40;83.99
67354;SHT30;54238;52.278;21.056;2023-12-20T03:44:05;7.39;84.10
67354;SHT30;54238;52.278;21.056;2023-12-20T03:46:35;7.38;84.12
67354;SHT30;54238;52.278;21.056;2023-12-20T03:49:07;7.38;84.14
67354;SHT30;54238;52.278;21.056;2023-12-20T03:51:41;7.37;84.23
67354;SHT30;54238;52.278;21.056;2023-12-20T03:54:10;7.36;84.29
67354;SHT30;54238;52.278;21.056;2023-12-20T03:56:37;7.35;84.30
67354;SHT30;54238;52.278;21.056;2023-12-20T03:59:06;7.35;84.41
67354;SHT30;54238;52.278;21.056;2023-12-20T04:01:34;7.35;84.42
67354;SHT30;54238;52.278;21.056;2023-12-20T04:04:03;7.34;84.43
67354;SHT30;54238;52.278;21.056;2023-12-20T04:06:30;7.34;84.48
67354;SHT30;54238;52.278;21.056;2023-12-20T04:09:02;7.35;84.48
67354;SHT30;54238;52.278;21.056;2023-12-20T04:11:29;7.36;84.50
67354;SHT30;54238;52.278;21.056;2023-12-20T04:14:23;7.36;84.48
67354;SHT30;54238;52.278;21.056;2023-12-20T04:16:53;7.38;84.49
67354;SHT30;54238;52.278;21.056;2023-12-20T04:19:23;7.39;84.41
67354;SHT30;54238;52.278;21.056;2023-12-20T04:21:53;7.39;84.46
67354;SHT30;54238;52.278;21.056;2023-12-20T04:24:22;7.40;84.46
67354;SHT30;54238;52.278;21.056;2023-12-20T04:26:51;7.40;84.42
67354;SHT30;54238;52.278;21.056;2023-12-20T04:29:18;7.39;84.36
67354;SHT30;54238;52.278;21.056;2023-12-20T04:31:48;7.41;84.30
67354;SHT30;54238;52.278;21.056;2023-12-20T04:34:18;7.41;84.25
67354;SHT30;54238;52.278;21.056;2023-12-20T04:36:53;7.42;84.27
67354;SHT30;54238;52.278;21.056;2023-12-20T04:39:25;7.42;84.16
67354;SHT30;54238;52.278;21.056;2023-12-20T04:41:55;7.41;84.15
67354;SHT30;54238;52.278;21.056;2023-12-20T04:44:22;7.41;84.15
67354;SHT30;54238;52.278;21.056;2023-12-20T04:46:53;7.41;84.18
67354;SHT30;54238;52.278;21.056;2023-12-20T04:49:20;7.39;84.14
67354;SHT30;54238;52.278;21.056;2023-12-20T04:51:54;7.39;84.08
67354;SHT30;54238;52.278;21.056;2023-12-20T04:54:22;7.40;84.11
67354;SHT30;54238;52.278;21.056;2023-12-20T04:56:53;7.40;84.07
67354;SHT30;54238;52.278;21.056;2023-12-20T04:59:20;7.40;84.04
67354;SHT30;54238;52.278;21.056;2023-12-20T05:01:50;7.40;84.05
67354;SHT30;54238;52.278;21.056;2023-12-20T05:04:19;7.38;84.00
67354;SHT30;54238;52.278;21.056;2023-12-20T05:06:47;7.38;84.05
67354;SHT30;54238;52.278;21.056;2023-12-20T05:09:21;7.38;84.09
67354;SHT30;54238;52.278;21.056;2023-12-20T05:11:50;7.36;84.10
67354;SHT30;54238;52.278;21.056;2023-12-20T05:14:17;7.36;84.11
67354;SHT30;54238;52.278;21.056;2023-12-20T05:16:46;7.35;84.16
67354;SHT30;54238;52.278;21.056;2023-12-20T05:19:13;7.34;84.15
67354;SHT30;54238;52.278;21.056;2023-12-20T05:21:40;7.34;84.20
67354;SHT30;54238;52.278;21.056;2023-12-20T05:24:12;7.33;84.24
67354;SHT30;54238;52.278;21.056;2023-12-20T05:26:38;7.34;84.28
67354;SHT30;54238;52.278;21.056;2023-12-20T05:29:06;7.34;84.28
67354;SHT30;54238;52.278;21.056;2023-12-20T05:31:32;7.34;84.30
67354;SHT30;54238;52.278;21.056;2023-12-20T05:34:02;7.32;84.28
67354;SHT30;54238;52.278;21.056;2023-12-20T05:36:31;7.33;84.30
67354;SHT30;54238;52.278;21.056;2023-12-20T05:38:58;7.31;84.33
67354;SHT30;54238;52.278;21.056;2023-12-20T05:41:30;7.32;84.33
67354;SHT30;54238;52.278;21.056;2023-12-20T05:44:00;7.30;84.40
67354;SHT30;54238;52.278;21.056;2023-12-20T05:46:31;7.30;84.40
67354;SHT30;54238;52.278;21.056;2023-12-20T05:49:01;7.29;84.39
67354;SHT30;54238;52.278;21.056;2023-12-20T05:51:28;7.28;84.42
67354;SHT30;54238;52.278;21.056;2023-12-20T05:53:58;7.28;84.43
67354;SHT30;54238;52.278;21.056;2023-12-20T05:56:28;7.27;84.49
67354;SHT30;54238;52.278;21.056;2023-12-20T05:58:55;7.27;84.50
67354;SHT30;54238;52.278;21.056;2023-12-20T06:01:21;7.28;84.46
67354;SHT30;54238;52.278;21.056;2023-12-20T06:03:53;7.29;84.47
67354;SHT30;54238;52.278;21.056;2023-12-20T06:06:20;7.30;84.47
67354;SHT30;54238;52.278;21.056;2023-12-20T06:08:49;7.30;84.48
67354;SHT30;54238;52.278;21.056;2023-12-20T06:11:16;7.30;84.44
67354;SHT30;54238;52.278;21.056;2023-12-20T06:13:43;7.30;84.48
67354;SHT30;54238;52.278;21.056;2023-12-20T06:16:15;7.30;84.40
67354;SHT30;54238;52.278;21.056;2023-12-20T06:18:45;7.29;84.40
67354;SHT30;54238;52.278;21.056;2023-12-20T06:21:16;7.28;84.40
67354;SHT30;54238;52.278;21.056;2023-12-20T06:23:43;7.29;84.40
67354;SHT30;54238;52.278;21.056;2023-12-20T06:26:12;7.28;84.39
67354;SHT30;54238;52.278;21.056;2023-12-20T06:28:42;7.26;84.30
67354;SHT30;54238;52.278;21.056;2023-12-20T06:31:11;7.26;84.30
67354;SHT30;54238;52.278;21.056;2023-12-20T06:33:42;7.26;84.33
67354;SHT30;54238;52.278;21.056;2023-12-20T06:36:12;7.26;84.30
67354;SHT30;54238;52.278;21.056;2023-12-20T06:38:40;7.25;84.30
67354;SHT30;54238;52.278;21.056;2023-12-20T06:41:12;7.25;84.31
67354;SHT30;54238;52.278;21.056;2023-12-20T06:43:43;7.24;84.27
67354;SHT30;54238;52.278;21.056;2023-12-20T06:46:16;7.23;84.30
67354;SHT30;54238;52.278;21.056;2023-12-20T06:48:45;7.23;84.30
67354;SHT30;54238;52.278;21.056;2023-12-20T06:51:17;7.22;84.33
67354;SHT30;54238;52.278;21.056;2023-12-20T06:53:54;7.21;84.37
67354;SHT30;54238;52.278;21.056;2023-12-20T06:56:23;7.20;84.36
67354;SHT30;54238;52.278;21.056;2023-12-20T06:58:54;7.21;84.39
67354;SHT30;54238;52.278;21.056;2023-12-20T07:01:26;7.20;84.42
67354;SHT30;54238;52.278;21.056;2023-12-20T07:03:55;7.19;84.37
67354;SHT30;54238;52.278;21.056;2023-12-20T07:06:22;7.20;84.40
67354;SHT30;54238;52.278;21.056;2023-12-20T07:08:52;7.20;84.39
67354;SHT30;54238;52.278;21.056;2023-12-20T07:11:21;7.20;84.38
67354;SHT30;54238;52.278;21.056;2023-12-20T07:13:53;7.21;84.41
67354;SHT30;54238;52.278;21.056;2023-12-20T07:16:24;7.21;84.31
67354;SHT30;54238;52.278;21.056;2023-12-20T07:18:54;7.20;84.37
67354;SHT30;54238;52.278;21.056;2023-12-20T07:21:20;7.22;84.36
67354;SHT30;54238;52.278;21.056;2023-12-20T07:23:50;7.21;84.40
67354;SHT30;54238;52.278;21.056;2023-12-20T07:26:17;7.21;84.41
67354;SHT30;54238;52.278;21.056;2023-12-20T07:28:52;7.22;84.42
67354;SHT30;54238;52.278;21.056;2023-12-20T07:31:21;7.22;84.42
67354;SHT30;54238;52.278;21.056;2023-12-20T07:33:53;7.22;84.46
67354;SHT30;54238;52.278;21.056;2023-12-20T07:36:27;7.22;84.49
67354;SHT30;54238;52.278;21.056;2023-12-20T07:38:54;7.23;84.50
67354;SHT30;54238;52.278;21.056;2023-12-20T07:41:21;7.24;84.50
67354;SHT30;54238;52.278;21.056;2023-12-20T07:43:52;7.25;84.45
67354;SHT30;54238;52.278;21.056;2023-12-20T07:46:27;7.26;84.46
67354;SHT30;54238;52.278;21.056;2023-12-20T07:48:59;7.26;84.40
67354;SHT30;54238;52.278;21.056;2023-12-20T07:51:29;7.25;84.36
67354;SHT30;54238;52.278;21.056;2023-12-20T07:53:56;7.27;84.40
67354;SHT30;54238;52.278;21.056;2023-12-20T07:56:28;7.26;84.40
67354;SHT30;54238;52.278;21.056;2023-12-20T07:58:57;7.25;84.36
67354;SHT30;54238;52.278;21.056;2023-12-20T08:01:26;7.26;84.42
67354;SHT30;54238;52.278;21.056;2023-12-20T08:03:58;7.27;84.41
67354;SHT30;54238;52.278;21.056;2023-12-20T08:06:25;7.30;84.42
67354;SHT30;54238;52.278;21.056;2023-12-20T08:08:52;7.30;84.37
67354;SHT30;54238;52.278;21.056;2023-12-20T08:11:24;7.29;84.35
67354;SHT30;54238;52.278;21.056;2023-12-20T08:13:51;7.28;84.39
67354;SHT30;54238;52.278;21.056;2023-12-20T08:16:23;7.28;84.31
67354;SHT30;54238;52.278;21.056;2023-12-20T08:18:53;7.28;84.38
67354;SHT30;54238;52.278;21.056;2023-12-20T08:21:22;7.27;84.31
67354;SHT30;54238;52.278;21.056;2023-12-20T08:23:53;7.27;84.32
67354;SHT30;54238;52.278;21.056;2023-12-20T08:26:27;7.27;84.34
67354;SHT30;54238;52.278;21.056;2023-12-20T08:28:58;7.28;84.28
67354;SHT30;54238;52.278;21.056;2023-12-20T08:31:26;7.30;84.30
67354;SHT30;54238;52.278;21.056;2023-12-20T08:33:56;7.30;84.28
67354;SHT30;54238;52.278;21.056;2023-12-20T08:36:25;7.29;84.20
67354;SHT30;54238;52.278;21.056;2023-12-20T08:38:55;7.29;84.19
67354;SHT30;54238;52.278;21.056;2023-12-20T08:41:24;7.31;84.19
67354;SHT30;54238;52.278;21.056;2023-12-20T08:43:56;7.31;84.16
67354;SHT30;54238;52.278;21.056;2023-12-20T08:46:28;7.30;84.08
67354;SHT30;54238;52.278;21.056;2023-12-20T08:48:57;7.29;84.14
67354;SHT30;54238;52.278;21.056;2023-12-20T08:51:26;7.29;84.13
67354;SHT30;54238;52.278;21.056;2023-12-20T08:53:56;7.30;84.04
67354;SHT30;54238;52.278;21.056;2023-12-20T08:56:26;7.31;84.05
67354;SHT30;54238;52.278;21.056;2023-12-20T08:58:56;7.31;84.07
67354;SHT30;54238;52.278;21.056;2023-12-20T09:01:27;7.33;84.16
67354;SHT30;54238;52.278;21.056;2023-12-20T09:03:56;7.34;84.18
67354;SHT30;54238;52.278;21.056;2023-12-20T09:06:29;7.36;84.09
67354;SHT30;54238;52.278;21.056;2023-12-20T09:08:58;7.36;83.98
67354;SHT30;54238;52.278;21.056;2023-12-20T09:11:29;7.36;83.91
67354;SHT30;54238;52.278;21.056;2023-12-20T09:14:01;7.34;83.90
67354;SHT30;54238;52.278;21.056;2023-12-20T09:16:33;7.33;83.83
67354;SHT30;54238;52.278;21.056;2023-12-20T09:19:07;7.33;83.90
67354;SHT30;54238;52.278;21.056;2023-12-20T09:21:39;7.32;83.90
67354;SHT30;54238;52.278;21.056;2023-12-20T09:24:08;7.31;83.92
67354;SHT30;54238;52.278;21.056;2023-12-20T09:26:38;7.31;83.86
67354;SHT30;54238;52.278;21.056;2023-12-20T09:29:08;7.29;83.91
67354;SHT30;54238;52.278;21.056;2023-12-20T09:31:37;7.30;83.96
67354;SHT30;54238;52.278;21.056;2023-12-20T09:34:08;7.30;84.00
67354;SHT30;54238;52.278;21.056;2023-12-20T09:36:35;7.32;84.04
67354;SHT30;54238;52.278;21.056;2023-12-20T09:39:03;7.31;84.04
67354;SHT30;54238;52.278;21.056;2023-12-20T09:41:31;7.30;84.00
67354;SHT30;54238;52.278;21.056;2023-12-20T09:44:06;7.31;84.07
67354;SHT30;54238;52.278;21.056;2023-12-20T09:46:39;7.32;84.06
67354;SHT30;54238;52.278;21.056;2023-12-20T09:49:14;7.32;84.00
67354;SHT30;54238;52.278;21.056;2023-12-20T09:51:49;7.31;84.05
67354;SHT30;54238;52.278;21.056;2023-12-20T09:54:20;7.33;84.10
67354;SHT30;54238;52.278;21.056;2023-12-20T09:56:50;7.34;84.10
67354;SHT30;54238;52.278;21.056;2023-12-20T09:59:17;7.36;84.12
67354;SHT30;54238;52.278;21.056;2023-12-20T10:01:47;7.36;84.02
67354;SHT30;54238;52.278;21.056;2023-12-20T10:04:16;7.36;83.93
67354;SHT30;54238;52.278;21.056;2023-12-20T10:06:49;7.36;84.00
67354;SHT30;54238;52.278;21.056;2023-12-20T10:09:25;7.36;84.01
67354;SHT30;54238;52.278;21.056;2023-12-20T10:11:57;7.36;83.99
67354;SHT30;54238;52.278;21.056;2023-12-20T10:14:25;7.37;83.96
67354;SHT30;54238;52.278;21.056;2023-12-20T10:16:54;7.37;84.00
67354;SHT30;54238;52.278;21.056;2023-12-20T10:19:32;7.36;83.90
67354;SHT30;54238;52.278;21.056;2023-12-20T10:21:59;7.36;83.90
67354;SHT30;54238;52.278;21.056;2023-12-20T10:24:29;7.35;83.91
67354;SHT30;54238;52.278;21.056;2023-12-20T10:27:05;7.36;83.95
67354;SHT30;54238;52.278;21.056;2023-12-20T10:29:40;7.38;83.93
67354;SHT30;54238;52.278;21.056;2023-12-20T10:32:25;7.38;83.95
67354;SHT30;54238;52.278;21.056;2023-12-20T10:34:54;7.38;83.91
67354;SHT30;54238;52.278;21.056;2023-12-20T10:37:28;7.37;83.90
67354;SHT30;54238;52.278;21.056;2023-12-20T10:39:55;7.38;83.90
67354;SHT30;54238;52.278;21.056;2023-12-20T10:42:33;7.38;83.90
67354;SHT30;54238;52.278;21.056;2023-12-20T10:45:04;7.37;83.82
67354;SHT30;54238;52.278;21.056;2023-12-20T10:47:34;7.37;83.84
67354;SHT30;54238;52.278;21.056;2023-12-20T10:50:07;7.35;83.72
67354;SHT30;54238;52.278;21.056;2023-12-20T10:52:36;7.36;83.86
67354;SHT30;54238;52.278;21.056;2023-12-20T10:55:07;7.38;83.85
67354;SHT30;54238;52.278;21.056;2023-12-20T10:57:35;7.39;83.85
67354;SHT30;54238;52.278;21.056;2023-12-20T11:00:07;7.40;83.80
67354;SHT30;54238;52.278;21.056;2023-12-20T11:02:45;7.40;83.84
67354;SHT30;54238;52.278;21.056;2023-12-20T11:08:28;7.36;83.69
67354;SHT30;54238;52.278;21.056;2023-12-20T11:14:01;7.34;83.80
67354;SHT30;54238;52.278;21.056;2023-12-20T11:16:40;7.36;83.86
67354;SHT30;54238;52.278;21.056;2023-12-20T11:19:13;7.35;83.73
67354;SHT30;54238;52.278;21.056;2023-12-20T11:21:46;7.36;83.72
67354;SHT30;54238;52.278;21.056;2023-12-20T11:24:15;7.38;83.77
67354;SHT30;54238;52.278;21.056;2023-12-20T11:26:48;7.39;83.66
67354;SHT30;54238;52.278;21.056;2023-12-20T11:29:33;7.41;83.71
67354;SHT30;54238;52.278;21.056;2023-12-20T11:32:03;7.43;83.73
67354;SHT30;54238;52.278;21.056;2023-12-20T11:34:51;7.45;83.59
67354;SHT30;54238;52.278;21.056;2023-12-20T11:37:20;7.45;83.56
67354;SHT30;54238;52.278;21.056;2023-12-20T11:40:07;7.42;83.37
67354;SHT30;54238;52.278;21.056;2023-12-20T11:42:41;7.43;83.41
67354;SHT30;54238;52.278;21.056;2023-12-20T11:45:16;7.45;83.47
67354;SHT30;54238;52.278;21.056;2023-12-20T11:47:48;7.45;83.37
67354;SHT30;54238;52.278;21.056;2023-12-20T11:50:22;7.44;83.34
67354;SHT30;54238;52.278;21.056;2023-12-20T11:52:51;7.47;83.42
67354;SHT30;54238;52.278;21.056;2023-12-20T11:55:24;7.45;83.34
67354;SHT30;54238;52.278;21.056;2023-12-20T11:57:56;7.44;83.23
67354;SHT30;54238;52.278;21.056;2023-12-20T12:00:25;7.42;83.26
67354;SHT30;54238;52.278;21.056;2023-12-20T12:03:00;7.41;83.37
67354;SHT30;54238;52.278;21.056;2023-12-20T12:05:30;7.43;83.51
67354;SHT30;54238;52.278;21.056;2023-12-20T12:08:07;7.41;83.62
67354;SHT30;54238;52.278;21.056;2023-12-20T12:10:34;7.39;83.72
67354;SHT30;54238;52.278;21.056;2023-12-20T12:13:01;7.36;83.58
67354;SHT30;54238;52.278;21.056;2023-12-20T12:15:31;7.34;83.75
67354;SHT30;54238;52.278;21.056;2023-12-20T12:18:01;7.34;83.89
67354;SHT30;54238;52.278;21.056;2023-12-20T12:20:34;7.35;84.00
67354;SHT30;54238;52.278;21.056;2023-12-20T12:23:05;7.35;84.11
67354;SHT30;54238;52.278;21.056;2023-12-20T12:25:36;7.36;84.20
67354;SHT30;54238;52.278;21.056;2023-12-20T12:28:08;7.36;84.25
67354;SHT30;54238;52.278;21.056;2023-12-20T12:30:35;7.35;84.17
67354;SHT30;54238;52.278;21.056;2023-12-20T12:33:04;7.36;84.15
67354;SHT30;54238;52.278;21.056;2023-12-20T12:35:35;7.33;83.65
67354;SHT30;54238;52.278;21.056;2023-12-20T12:38:06;7.30;82.76
67354;SHT30;54238;52.278;21.056;2023-12-20T12:40:40;7.28;82.47
67354;SHT30;54238;52.278;21.056;2023-12-20T12:43:12;7.26;82.09
67354;SHT30;54238;52.278;21.056;2023-12-20T12:45:41;7.26;81.90
67354;SHT30;54238;52.278;21.056;2023-12-20T12:48:10;7.24;81.52
67354;SHT30;54238;52.278;21.056;2023-12-20T12:50:40;7.21;80.73
67354;SHT30;54238;52.278;21.056;2023-12-20T12:53:09;7.19;80.90
67354;SHT30;54238;52.278;21.056;2023-12-20T12:55:36;7.18;81.21
67354;SHT30;54238;52.278;21.056;2023-12-20T12:58:07;7.16;81.39
67354;SHT30;54238;52.278;21.056;2023-12-20T13:00:34;7.13;81.27
67354;SHT30;54238;52.278;21.056;2023-12-20T13:03:02;7.11;81.44
67354;SHT30;54238;52.278;21.056;2023-12-20T13:05:34;7.10;81.51
67354;SHT30;54238;52.278;21.056;2023-12-20T13:08:04;7.08;81.44
67354;SHT30;54238;52.278;21.056;2023-12-20T13:10:38;7.08;81.40
67354;SHT30;54238;52.278;21.056;2023-12-20T13:13:10;7.07;81.51
67354;SHT30;54238;52.278;21.056;2023-12-20T13:15:39;7.05;81.49
67354;SHT30;54238;52.278;21.056;2023-12-20T13:18:07;7.02;81.36
67354;SHT30;54238;52.278;21.056;2023-12-20T13:20:34;7.04;81.54
67354;SHT30;54238;52.278;21.056;2023-12-20T13:23:05;7.03;81.69
67354;SHT30;54238;52.278;21.056;2023-12-20T13:25:34;7.05;81.81
67354;SHT30;54238;52.278;21.056;2023-12-20T13:28:03;7.07;81.56
67354;SHT30;54238;52.278;21.056;2023-12-20T13:30:39;7.07;81.38
67354;SHT30;54238;52.278;21.056;2023-12-20T13:33:12;7.05;81.27
67354;SHT30;54238;52.278;21.056;2023-12-20T13:35:38;7.06;80.96
67354;SHT30;54238;52.278;21.056;2023-12-20T13:38:06;7.07;80.67
67354;SHT30;54238;52.278;21.056;2023-12-20T13:40:37;7.07;80.40
67354;SHT30;54238;52.278;21.056;2023-12-20T13:43:07;7.11;80.59
67354;SHT30;54238;52.278;21.056;2023-12-20T13:45:37;7.13;80.51
67354;SHT30;54238;52.278;21.056;2023-12-20T13:48:04;7.13;80.35
67354;SHT30;54238;52.278;21.056;2023-12-20T13:50:31;7.10;80.13
67354;SHT30;54238;52.278;21.056;2023-12-20T13:52:58;7.10;80.18
67354;SHT30;54238;52.278;21.056;2023-12-20T13:55:27;7.07;80.37
67354;SHT30;54238;52.278;21.056;2023-12-20T13:57:59;7.07;80.32
67354;SHT30;54238;52.278;21.056;2023-12-20T14:00:29;7.04;80.29
67354;SHT30;54238;52.278;21.056;2023-12-20T14:02:55;7.01;80.17
67354;SHT30;54238;52.278;21.056;2023-12-20T14:05:23;6.99;79.98
67354;SHT30;54238;52.278;21.056;2023-12-20T14:07:54;6.98;80.07
67354;SHT30;54238;52.278;21.056;2023-12-20T14:10:21;6.98;80.21
67354;SHT30;54238;52.278;21.056;2023-12-20T14:12:48;6.98;80.23
67354;SHT30;54238;52.278;21.056;2023-12-20T14:15:20;6.97;80.01
67354;SHT30;54238;52.278;21.056;2023-12-20T14:17:47;6.97;80.03
67354;SHT30;54238;52.278;21.056;2023-12-20T14:20:18;6.97;79.93
67354;SHT30;54238;52.278;21.056;2023-12-20T14:22:50;6.95;79.73
67354;SHT30;54238;52.278;21.056;2023-12-20T14:25:19;6.93;79.23
67354;SHT30;54238;52.278;21.056;2023-12-20T14:27:48;6.92;78.86
67354;SHT30;54238;52.278;21.056;2023-12-20T14:30:22;6.91;78.81
67354;SHT30;54238;52.278;21.056;2023-12-20T14:32:51;6.89;78.56
67354;SHT30;54238;52.278;21.056;2023-12-20T14:35:18;6.89;78.88
67354;SHT30;54238;52.278;21.056;2023-12-20T14:37:51;6.87;78.91
67354;SHT30;54238;52.278;21.056;2023-12-20T14:40:23;6.86;78.67
67354;SHT30;54238;52.278;21.056;2023-12-20T14:42:52;6.84;78.33
67354;SHT30;54238;52.278;21.056;2023-12-20T14:45:20;6.83;78.04
67354;SHT30;54238;52.278;21.056;2023-12-20T14:47:52;6.83;77.99
67354;SHT30;54238;52.278;21.056;2023-12-20T14:50:24;6.81;77.39
67354;SHT30;54238;52.278;21.056;2023-12-20T14:52:55;6.80;77.22
67354;SHT30;54238;52.278;21.056;2023-12-20T14:55:23;6.78;76.70
67354;SHT30;54238;52.278;21.056;2023-12-20T14:57:50;6.77;76.74
67354;SHT30;54238;52.278;21.056;2023-12-20T15:00:19;6.76;76.34
67354;SHT30;54238;52.278;21.056;2023-12-20T15:02:46;6.76;76.20
67354;SHT30;54238;52.278;21.056;2023-12-20T15:05:16;6.75;76.20
67354;SHT30;54238;52.278;21.056;2023-12-20T15:07:48;6.75;76.32
67354;SHT30;54238;52.278;21.056;2023-12-20T15:10:15;6.74;76.38
67354;SHT30;54238;52.278;21.056;2023-12-20T15:12:48;6.71;76.09
67354;SHT30;54238;52.278;21.056;2023-12-20T15:15:14;6.71;76.22
67354;SHT30;54238;52.278;21.056;2023-12-20T15:17:49;6.67;76.13
67354;SHT30;54238;52.278;21.056;2023-12-20T15:20:19;6.64;75.96
67354;SHT30;54238;52.278;21.056;2023-12-20T15:22:49;6.63;76.26
67354;SHT30;54238;52.278;21.056;2023-12-20T15:25:19;6.60;76.05
67354;SHT30;54238;52.278;21.056;2023-12-20T15:27:48;6.59;76.24
67354;SHT30;54238;52.278;21.056;2023-12-20T15:30:19;6.60;76.30
67354;SHT30;54238;52.278;21.056;2023-12-20T15:32:50;6.60;76.32
67354;SHT30;54238;52.278;21.056;2023-12-20T15:35:20;6.59;76.18
67354;SHT30;54238;52.278;21.056;2023-12-20T15:37:49;6.59;76.17
67354;SHT30;54238;52.278;21.056;2023-12-20T15:40:18;6.57;76.33
67354;SHT30;54238;52.278;21.056;2023-12-20T15:42:48;6.57;76.34
67354;SHT30;54238;52.278;21.056;2023-12-20T15:45:18;6.55;76.39
67354;SHT30;54238;52.278;21.056;2023-12-20T15:47:47;6.53;76.05
67354;SHT30;54238;52.278;21.056;2023-12-20T15:50:14;6.55;76.15
67354;SHT30;54238;52.278;21.056;2023-12-20T15:52:44;6.54;75.84
67354;SHT30;54238;52.278;21.056;2023-12-20T15:55:11;6.54;75.76